sensor_id;sensor_type;location;lat;lon;timestamp;temperature;humidity
39695;DHT22;25367;-35.352;149.036;2023-05-10T09:33:46;18.20;57.60
39695;DHT22;25367;-35.352;149.036;2023-05-10T09:36:16;18.20;58.20
39695;DHT22;25367;-35.352;149.036;2023-05-10T09:38:49;18.40;58.30
39695;DHT22;25367;-35.352;149.036;2023-05-10T09:41:21;18.50;58.10
39695;DHT22;25367;-35.352;149.036;2023-05-10T09:43:55;18.70;58.00
39695;DHT22;25367;-35.352;149.036;2023-05-10T09:46:24;18.90;57.90
39695;DHT22;25367;-35.352;149.036;2023-05-10T09:48:57;19.00;57.80
39695;DHT22;25367;-35.352;149.036;2023-05-10T09:51:27;19.10;57.70
39695;DHT22;25367;-35.352;149.036;2023-05-10T09:54:10;19.30;57.70
39695;DHT22;25367;-35.352;149.036;2023-05-10T09:56:40;19.50;57.60
39695;DHT22;25367;-35.352;149.036;2023-05-10T09:59:11;19.60;57.60
39695;DHT22;25367;-35.352;149.036;2023-05-10T10:01:42;19.70;57.50
39695;DHT22;25367;-35.352;149.036;2023-05-10T10:04:21;19.80;57.30
39695;DHT22;25367;-35.352;149.036;2023-05-10T10:07:01;19.90;57.20
39695;DHT22;25367;-35.352;149.036;2023-05-10T10:09:30;20.00;57.10
39695;DHT22;25367;-35.352;149.036;2023-05-10T10:12:01;20.10;57.00
39695;DHT22;25367;-35.352;149.036;2023-05-10T10:14:31;20.20;56.90
39695;DHT22;25367;-35.352;149.036;2023-05-10T10:17:02;20.20;56.90
39695;DHT22;25367;-35.352;149.036;2023-05-10T10:19:35;20.30;56.80
39695;DHT22;25367;-35.352;149.036;2023-05-10T10:22:05;20.30;56.70
39695;DHT22;25367;-35.352;149.036;2023-05-10T10:24:35;20.40;56.70
39695;DHT22;25367;-35.352;149.036;2023-05-10T10:27:13;20.40;56.60
39695;DHT22;25367;-35.352;149.036;2023-05-10T10:29:52;20.50;56.80
39695;DHT22;25367;-35.352;149.036;2023-05-10T10:32:42;20.50;56.80
39695;DHT22;25367;-35.352;149.036;2023-05-10T10:35:20;20.50;56.70
39695;DHT22;25367;-35.352;149.036;2023-05-10T10:37:52;20.50;56.70
39695;DHT22;25367;-35.352;149.036;2023-05-10T10:40:28;20.60;56.70
39695;DHT22;25367;-35.352;149.036;2023-05-10T10:42:59;20.60;56.70
39695;DHT22;25367;-35.352;149.036;2023-05-10T10:46:12;20.60;56.70
39695;DHT22;25367;-35.352;149.036;2023-05-10T10:48:50;20.60;56.50
39695;DHT22;25367;-35.352;149.036;2023-05-10T10:51:23;20.70;56.60
39695;DHT22;25367;-35.352;149.036;2023-05-10T10:53:52;20.70;56.50
39695;DHT22;25367;-35.352;149.036;2023-05-10T10:56:23;20.70;56.40
39695;DHT22;25367;-35.352;149.036;2023-05-10T10:58:52;20.70;56.30
39695;DHT22;25367;-35.352;149.036;2023-05-10T11:01:22;20.70;56.30
39695;DHT22;25367;-35.352;149.036;2023-05-10T11:04:18;20.70;56.20
39695;DHT22;25367;-35.352;149.036;2023-05-10T11:06:52;20.70;56.10
39695;DHT22;25367;-35.352;149.036;2023-05-10T11:09:41;20.70;56.20
39695;DHT22;25367;-35.352;149.036;2023-05-10T11:12:11;20.70;56.70
39695;DHT22;25367;-35.352;149.036;2023-05-10T11:14:41;20.70;56.00
39695;DHT22;25367;-35.352;149.036;2023-05-10T11:17:27;20.70;55.90
39695;DHT22;25367;-35.352;149.036;2023-05-10T11:20:09;20.80;55.90
39695;DHT22;25367;-35.352;149.036;2023-05-10T11:23:14;20.70;55.90
39695;DHT22;25367;-35.352;149.036;2023-05-10T11:25:44;20.70;55.80
39695;DHT22;25367;-35.352;149.036;2023-05-10T11:28:14;20.70;55.90
39695;DHT22;25367;-35.352;149.036;2023-05-10T11:30:45;20.70;55.70
39695;DHT22;25367;-35.352;149.036;2023-05-10T11:33:18;20.70;55.70
39695;DHT22;25367;-35.352;149.036;2023-05-10T11:35:47;20.70;55.70
39695;DHT22;25367;-35.352;149.036;2023-05-10T11:38:20;20.70;55.70
39695;DHT22;25367;-35.352;149.036;2023-05-10T11:40:53;20.70;55.60
39695;DHT22;25367;-35.352;149.036;2023-05-10T11:43:26;20.70;55.60
39695;DHT22;25367;-35.352;149.036;2023-05-10T11:45:56;20.70;55.60
39695;DHT22;25367;-35.352;149.036;2023-05-10T11:48:25;20.60;55.50
39695;DHT22;25367;-35.352;149.036;2023-05-10T11:50:55;20.70;55.50
39695;DHT22;25367;-35.352;149.036;2023-05-10T11:53:28;20.70;55.40
39695;DHT22;25367;-35.352;149.036;2023-05-10T11:56:03;20.70;55.40
39695;DHT22;25367;-35.352;149.036;2023-05-10T11:58:33;20.60;55.40
39695;DHT22;25367;-35.352;149.036;2023-05-10T12:01:04;20.70;55.40
39695;DHT22;25367;-35.352;149.036;2023-05-10T12:03:34;20.60;55.30
39695;DHT22;25367;-35.352;149.036;2023-05-10T12:06:04;20.60;55.30
39695;DHT22;25367;-35.352;149.036;2023-05-10T12:08:45;20.70;55.40
39695;DHT22;25367;-35.352;149.036;2023-05-10T12:11:15;20.60;55.30
39695;DHT22;25367;-35.352;149.036;2023-05-10T12:13:45;20.60;55.30
39695;DHT22;25367;-35.352;149.036;2023-05-10T12:16:16;20.60;55.20
39695;DHT22;25367;-35.352;149.036;2023-05-10T12:18:48;20.60;55.20
39695;DHT22;25367;-35.352;149.036;2023-05-10T12:21:18;20.60;55.20
39695;DHT22;25367;-35.352;149.036;2023-05-10T12:23:52;20.60;55.20
39695;DHT22;25367;-35.352;149.036;2023-05-10T12:26:23;20.60;55.10
